createdAt,value
2019-01-14T00:02:44.673Z,6.40
2019-01-14T00:05:33.607Z,4.30
2019-01-14T00:08:21.824Z,5.90
2019-01-14T00:11:11.470Z,7.37
2019-01-14T00:13:59.737Z,6.20
2019-01-14T00:16:48.205Z,5.97
2019-01-14T00:19:36.555Z,7.17
2019-01-14T00:22:24.919Z,7.53
2019-01-14T00:25:14.198Z,4.70
2019-01-14T00:28:02.612Z,3.83
2019-01-14T00:30:51.053Z,6.57
2019-01-14T00:33:39.604Z,3.50
2019-01-14T00:36:28.538Z,4.10
2019-01-14T00:39:17.187Z,5.17
2019-01-14T00:42:05.450Z,3.40
2019-01-14T00:44:53.828Z,4.27
2019-01-14T00:47:42.055Z,4.37
2019-01-14T00:50:30.686Z,4.63
2019-01-14T00:53:19.634Z,5.80
2019-01-14T00:56:08.202Z,5.23
2019-01-14T00:58:56.883Z,3.40
2019-01-14T01:01:44.987Z,6.07
2019-01-14T01:04:33.626Z,4.33
2019-01-14T01:07:22.639Z,6.27
2019-01-14T01:10:14.518Z,3.77
2019-01-14T01:13:03.471Z,5.80
2019-01-14T01:15:52.354Z,4.13
2019-01-14T01:18:40.547Z,2.73
2019-01-14T01:21:29.364Z,11.20
2019-01-14T01:24:17.466Z,6.23
2019-01-14T01:27:05.903Z,6.30
2019-01-14T01:29:54.955Z,7.50
2019-01-14T01:32:43.216Z,3.83
2019-01-14T01:35:31.427Z,2.10
2019-01-14T01:38:20.021Z,5.17
2019-01-14T01:41:08.809Z,2.20
2019-01-14T01:43:57.866Z,3.57
2019-01-14T01:46:46.012Z,5.87
2019-01-14T01:49:34.079Z,4.33
2019-01-14T01:52:22.347Z,2.03
2019-01-14T01:55:12.367Z,5.30
2019-01-14T01:58:01.469Z,4.77
2019-01-14T02:00:49.705Z,1.73
2019-01-14T02:03:37.605Z,7.87
2019-01-14T02:06:25.701Z,5.03
2019-01-14T02:09:14.166Z,6.60
2019-01-14T02:12:02.655Z,4.40
2019-01-14T02:14:50.961Z,3.10
2019-01-14T02:17:39.086Z,3.47
2019-01-14T02:20:27.655Z,7.00
2019-01-14T02:23:16.605Z,2.73
2019-01-14T02:26:05.049Z,2.20
2019-01-14T02:28:53.943Z,6.93
2019-01-14T02:31:42.378Z,4.20
2019-01-14T02:34:30.979Z,2.30
2019-01-14T02:37:19.545Z,2.77
2019-01-14T02:40:13.939Z,5.17
2019-01-14T02:43:02.266Z,2.70
2019-01-14T02:45:50.400Z,3.13
2019-01-14T02:48:39.129Z,4.20
2019-01-14T02:51:27.891Z,2.73
2019-01-14T02:54:16.447Z,3.53
2019-01-14T02:57:04.718Z,2.20
2019-01-14T02:59:53.178Z,1.30
2019-01-14T03:02:42.069Z,2.57
2019-01-14T03:05:30.551Z,4.43
2019-01-14T03:08:18.633Z,5.00
2019-01-14T03:11:07.660Z,2.50
2019-01-14T03:13:55.866Z,3.37
2019-01-14T03:16:44.184Z,5.30
2019-01-14T03:19:32.489Z,3.83
2019-01-14T03:22:21.554Z,1.10
2019-01-14T03:25:11.817Z,2.23
2019-01-14T03:28:00.813Z,3.03
2019-01-14T03:30:49.063Z,6.10
2019-01-14T03:33:37.577Z,1.47
2019-01-14T03:36:25.795Z,3.17
2019-01-14T03:39:14.218Z,1.63
2019-01-14T03:42:03.056Z,3.00
2019-01-14T03:44:51.542Z,3.07
2019-01-14T03:47:39.557Z,1.70
2019-01-14T03:50:28.349Z,1.40
2019-01-14T03:53:16.824Z,1.77
2019-01-14T03:56:05.349Z,2.80
2019-01-14T03:58:53.927Z,2.50
2019-01-14T04:01:42.387Z,1.80
2019-01-14T04:04:31.237Z,1.67
2019-01-14T04:07:20.168Z,2.83
2019-01-14T04:10:18.815Z,2.97
2019-01-14T04:13:07.770Z,3.80
2019-01-14T04:15:56.265Z,2.20
2019-01-14T04:18:44.556Z,3.20
2019-01-14T04:21:33.034Z,1.67
2019-01-14T04:24:22.392Z,1.90
2019-01-14T04:27:10.372Z,2.47
2019-01-14T04:29:59.702Z,1.50
2019-01-14T04:32:48.726Z,3.63
2019-01-14T04:35:37.199Z,2.00
2019-01-14T04:38:26.121Z,3.53
2019-01-14T04:41:14.461Z,2.93
2019-01-14T04:44:02.722Z,2.40
2019-01-14T04:46:51.220Z,3.33
2019-01-14T04:49:39.770Z,3.33
2019-01-14T04:52:28.269Z,3.63
2019-01-14T04:55:16.775Z,2.20
2019-01-14T04:58:06.489Z,1.50
2019-01-14T05:00:55.321Z,3.07
2019-01-14T05:03:44.761Z,2.13
2019-01-14T05:06:32.909Z,3.03
2019-01-14T05:09:21.610Z,2.60
2019-01-14T05:12:09.863Z,1.47
2019-01-14T05:14:58.281Z,4.10
2019-01-14T05:17:46.711Z,2.23
2019-01-14T05:20:35.107Z,2.80
2019-01-14T05:23:23.420Z,5.63
2019-01-14T05:26:11.504Z,5.50
2019-01-14T05:29:00.087Z,1.37
2019-01-14T05:31:48.295Z,4.87
2019-01-14T05:34:36.351Z,2.10
2019-01-14T05:37:24.744Z,1.83
2019-01-14T05:40:18.869Z,2.63
2019-01-14T05:43:07.927Z,2.60
2019-01-14T05:45:56.314Z,2.23
2019-01-14T05:48:44.787Z,0.93
2019-01-14T05:51:33.183Z,2.00
2019-01-14T05:54:21.773Z,2.10
2019-01-14T05:57:10.218Z,3.00
2019-01-14T05:59:58.616Z,3.90
2019-01-14T06:02:47.024Z,2.23
2019-01-14T06:05:35.303Z,2.00
2019-01-14T06:08:23.634Z,2.77
2019-01-14T06:11:12.527Z,2.73
2019-01-14T06:14:01.212Z,1.20
2019-01-14T06:16:49.670Z,1.80
2019-01-14T06:19:38.271Z,2.03
2019-01-14T06:22:26.662Z,2.07
2019-01-14T06:25:16.110Z,3.03
2019-01-14T06:28:04.660Z,3.97
2019-01-14T06:30:52.950Z,0.90
2019-01-14T06:33:41.108Z,1.00
2019-01-14T06:36:29.341Z,4.33
2019-01-14T06:39:17.837Z,1.90
2019-01-14T06:42:07.630Z,3.00
2019-01-14T06:44:56.140Z,1.23
2019-01-14T06:47:44.440Z,2.40
2019-01-14T06:50:33.040Z,1.63
2019-01-14T06:53:21.606Z,1.90
2019-01-14T06:56:10.040Z,1.53
2019-01-14T06:58:58.248Z,3.07
2019-01-14T07:01:46.447Z,2.50
2019-01-14T07:04:34.570Z,3.30
2019-01-14T07:07:22.827Z,2.73
2019-01-14T07:10:15.193Z,1.63
2019-01-14T07:13:03.684Z,2.27
2019-01-14T07:15:52.062Z,2.10
2019-01-14T07:18:40.394Z,1.37
2019-01-14T07:21:28.697Z,3.00
2019-01-14T07:24:17.063Z,3.03
2019-01-14T07:27:05.646Z,2.37
2019-01-14T07:29:53.777Z,3.13
2019-01-14T07:32:42.061Z,3.53
2019-01-14T07:35:31.038Z,5.80
2019-01-14T07:38:19.583Z,6.63
2019-01-14T07:41:07.676Z,9.63
2019-01-14T07:43:56.118Z,14.50
2019-01-14T07:46:45.058Z,8.70
2019-01-14T07:49:33.372Z,26.57
2019-01-14T07:52:22.201Z,17.33
2019-01-14T07:55:10.592Z,25.47
2019-01-14T07:57:59.195Z,41.77
2019-01-14T08:00:47.957Z,48.33
2019-01-14T08:03:36.144Z,25.97
2019-01-14T08:06:24.721Z,28.93
2019-01-14T08:09:13.157Z,20.40
2019-01-14T08:12:01.763Z,12.93
2019-01-14T08:14:50.368Z,16.10
2019-01-14T08:17:38.775Z,6.87
2019-01-14T08:20:26.861Z,8.90
2019-01-14T08:23:16.042Z,4.87
2019-01-14T08:26:04.819Z,6.87
2019-01-14T08:28:53.065Z,6.37
2019-01-14T08:31:41.502Z,7.50
2019-01-14T08:34:29.995Z,4.80
2019-01-14T08:37:18.188Z,8.00
2019-01-14T08:40:09.648Z,7.60
2019-01-14T08:42:58.702Z,10.23
2019-01-14T08:45:47.315Z,11.33
2019-01-14T08:48:35.464Z,12.27
2019-01-14T08:51:23.751Z,8.70
2019-01-14T08:54:12.699Z,6.13
2019-01-14T08:57:01.752Z,15.03
2019-01-14T08:59:49.998Z,11.40
2019-01-14T09:02:38.453Z,22.03
2019-01-14T09:05:27.065Z,14.20
2019-01-14T09:08:15.139Z,17.80
2019-01-14T09:11:03.668Z,13.40
2019-01-14T09:13:52.039Z,5.50
2019-01-14T09:16:40.225Z,6.57
2019-01-14T09:19:28.863Z,6.37
2019-01-14T11:28:06.137Z,6.87
2019-01-14T11:30:54.618Z,3.53
2019-01-14T11:48:45.430Z,4.30
2019-01-14T11:51:33.961Z,4.77
2019-01-14T11:54:22.553Z,5.83
2019-01-14T11:57:10.733Z,7.53
2019-01-14T11:59:59.167Z,7.73
2019-01-14T12:02:47.348Z,7.93
2019-01-14T12:05:35.805Z,9.27
2019-01-14T12:08:24.103Z,7.00
2019-01-14T12:11:12.605Z,3.70
2019-01-14T12:14:00.938Z,2.63
2019-01-14T12:16:49.393Z,7.83
2019-01-14T12:19:38.364Z,7.60
2019-01-14T12:22:26.380Z,3.80
2019-01-14T12:25:14.741Z,5.33
2019-01-14T12:28:03.136Z,4.00
2019-01-14T12:30:51.432Z,6.03
2019-01-14T12:33:39.623Z,4.63
2019-01-14T12:36:27.714Z,5.93
2019-01-14T12:39:19.759Z,3.00
2019-01-14T12:42:05.542Z,9.80
2019-01-14T12:44:53.727Z,5.17
2019-01-14T12:47:41.913Z,5.20
2019-01-14T12:50:30.819Z,3.70
2019-01-14T12:53:18.924Z,4.93
2019-01-14T12:56:07.207Z,8.10
2019-01-14T12:58:55.677Z,5.23
2019-01-14T13:01:43.756Z,11.70
2019-01-14T13:04:32.225Z,2.23
2019-01-14T13:07:20.683Z,3.83
2019-01-14T13:10:11.836Z,2.80
2019-01-14T13:12:59.977Z,2.37
2019-01-14T13:15:48.094Z,6.93
2019-01-14T13:18:36.171Z,5.13
2019-01-14T13:21:24.393Z,13.07
2019-01-14T13:24:12.803Z,15.43
2019-01-14T13:27:00.892Z,7.87
2019-01-14T13:29:49.269Z,7.20
2019-01-14T13:32:38.869Z,18.50
2019-01-14T13:35:27.002Z,20.53
2019-01-14T13:38:15.157Z,8.10
2019-01-14T13:41:03.540Z,16.97
2019-01-14T13:43:52.022Z,12.20
2019-01-14T13:46:40.392Z,10.43
2019-01-14T13:49:28.368Z,7.33
2019-01-14T13:52:16.444Z,7.43
2019-01-14T13:55:06.983Z,15.80
2019-01-14T13:57:59.754Z,8.00
2019-01-14T14:00:45.219Z,6.53
2019-01-14T14:03:33.543Z,13.23
2019-01-14T14:06:21.634Z,10.83
2019-01-14T14:09:10.335Z,8.17
2019-01-14T14:11:58.346Z,7.40
2019-01-14T14:14:46.334Z,8.23
2019-01-14T14:17:34.794Z,5.40
2019-01-14T14:20:23.208Z,7.30
2019-01-14T14:23:11.620Z,3.80
2019-01-14T14:25:59.633Z,7.70
2019-01-14T14:28:47.903Z,8.10
2019-01-14T14:31:35.897Z,7.77
2019-01-14T14:34:24.045Z,4.70
2019-01-14T14:37:12.302Z,7.70
2019-01-14T14:40:00.816Z,11.70
2019-01-14T14:42:49.168Z,11.90
2019-01-14T14:45:37.593Z,6.10
2019-01-14T14:48:26.000Z,10.57
2019-01-14T14:51:14.299Z,4.83
2019-01-14T14:54:02.810Z,7.13
2019-01-14T14:56:50.799Z,17.70
2019-01-14T14:59:38.992Z,5.70
2019-01-14T15:02:27.390Z,9.40
2019-01-14T15:05:15.746Z,5.13
2019-01-14T15:08:03.830Z,4.40
2019-01-14T15:10:51.959Z,9.37
2019-01-14T15:13:40.560Z,4.50
2019-01-14T15:16:28.835Z,2.63
2019-01-14T15:19:17.097Z,3.87
2019-01-14T15:22:05.367Z,15.63
2019-01-14T15:24:53.888Z,8.87
2019-01-14T15:27:42.608Z,4.70
2019-01-14T15:30:31.373Z,4.93
2019-01-14T15:33:19.789Z,5.57
2019-01-14T15:36:07.935Z,6.30
2019-01-14T15:38:56.337Z,3.70
2019-01-14T15:41:44.378Z,4.90
2019-01-14T15:44:32.646Z,8.30
2019-01-14T15:47:20.795Z,3.23
2019-01-14T15:50:11.785Z,8.07
2019-01-14T15:53:01.486Z,14.23
2019-01-14T15:55:49.986Z,8.23
2019-01-14T15:58:38.428Z,6.10
2019-01-14T16:01:26.876Z,7.60
2019-01-14T16:04:15.295Z,3.60
2019-01-14T16:07:04.077Z,5.80
2019-01-14T16:09:52.637Z,9.53
2019-01-14T16:12:44.500Z,5.07
2019-01-14T16:15:33.025Z,3.70
2019-01-14T16:18:21.205Z,2.30
2019-01-14T16:21:09.839Z,7.93
2019-01-14T16:23:58.209Z,2.80
2019-01-14T16:26:46.525Z,6.10
2019-01-14T16:29:35.080Z,7.73
2019-01-14T16:32:23.670Z,6.20
2019-01-14T16:35:12.205Z,3.10
2019-01-14T16:38:00.631Z,4.40
2019-01-14T16:40:49.032Z,5.33
2019-01-14T16:43:37.145Z,4.23
2019-01-14T16:46:25.282Z,6.30
2019-01-14T16:49:13.607Z,5.20
2019-01-14T16:52:02.071Z,3.07
2019-01-14T16:54:52.519Z,2.30
2019-01-14T16:57:40.595Z,6.03
2019-01-14T17:00:29.154Z,4.73
2019-01-14T17:03:17.514Z,5.50
2019-01-14T17:06:05.937Z,6.90
2019-01-14T17:08:54.204Z,3.23
2019-01-14T17:11:42.349Z,5.57
2019-01-14T17:14:30.829Z,7.97
2019-01-14T17:17:19.045Z,6.23
2019-01-14T17:20:13.693Z,3.87
2019-01-14T17:23:01.983Z,1.73
2019-01-14T17:25:50.919Z,4.60
2019-01-14T17:28:39.662Z,5.80
2019-01-14T17:31:28.261Z,8.13
2019-01-14T17:34:18.519Z,3.13
2019-01-14T17:37:06.591Z,3.57
2019-01-14T17:39:56.029Z,3.97
2019-01-14T17:42:44.352Z,5.30
2019-01-14T17:45:33.166Z,2.60
2019-01-14T17:48:21.278Z,3.10
2019-01-14T17:51:09.860Z,3.60
2019-01-14T17:53:58.173Z,3.07
2019-01-14T17:56:46.168Z,3.87
2019-01-14T17:59:34.425Z,3.97
2019-01-14T18:02:22.916Z,5.53
2019-01-14T18:05:11.143Z,3.90
2019-01-14T18:07:59.660Z,3.07
2019-01-14T18:10:47.628Z,5.13
2019-01-14T18:13:35.664Z,3.27
2019-01-14T18:16:23.933Z,7.10
2019-01-14T18:19:11.940Z,3.47
2019-01-14T18:22:00.410Z,2.87
2019-01-14T18:24:48.483Z,5.27
2019-01-14T18:27:36.704Z,3.63
2019-01-14T18:30:25.131Z,2.70
2019-01-14T18:33:13.250Z,4.70
2019-01-14T18:36:01.582Z,2.30
2019-01-14T18:38:49.862Z,9.53
2019-01-14T18:41:38.104Z,5.43
2019-01-14T18:44:26.324Z,4.47
2019-01-14T18:47:14.630Z,3.43
2019-01-14T18:50:03.040Z,2.90
2019-01-14T18:52:52.304Z,1.83
2019-01-14T18:55:40.630Z,1.90
2019-01-14T18:58:28.877Z,3.33
2019-01-14T19:01:17.027Z,1.60
2019-01-14T19:04:05.035Z,2.50
2019-01-14T19:06:53.539Z,2.07
2019-01-14T19:09:42.044Z,2.10
2019-01-14T19:12:30.035Z,3.13
2019-01-14T19:15:19.200Z,4.27
2019-01-14T19:18:07.481Z,2.43
2019-01-14T19:20:55.652Z,2.50
2019-01-14T19:23:43.851Z,2.23
2019-01-14T19:26:32.069Z,2.53
2019-01-14T19:29:20.133Z,2.27
2019-01-14T19:32:08.832Z,2.90
2019-01-14T19:34:57.060Z,3.53
2019-01-14T19:37:45.743Z,2.73
2019-01-14T19:40:34.112Z,4.47
2019-01-14T19:43:22.596Z,4.30
2019-01-14T19:46:10.882Z,1.57
2019-01-14T19:48:58.949Z,1.70
2019-01-14T19:51:47.250Z,3.43
2019-01-14T19:54:35.431Z,1.20
2019-01-14T19:57:23.859Z,2.07
2019-01-14T20:00:21.078Z,2.03
2019-01-14T20:03:09.140Z,6.40
2019-01-14T20:05:57.619Z,1.77
2019-01-14T20:08:46.050Z,2.30
2019-01-14T20:11:34.111Z,2.60
2019-01-14T20:14:22.348Z,1.27
2019-01-14T20:17:11.018Z,2.53
2019-01-14T20:19:59.372Z,1.97
2019-01-14T20:22:47.818Z,2.17
2019-01-14T20:25:36.169Z,1.37
2019-01-14T20:28:24.289Z,5.17
2019-01-14T20:31:12.464Z,4.13
2019-01-14T20:34:00.955Z,1.60
2019-01-14T20:36:48.989Z,4.43
2019-01-14T20:39:37.616Z,2.00
2019-01-14T20:42:25.832Z,5.00
2019-01-14T20:45:16.250Z,1.23
2019-01-14T20:48:05.004Z,6.30
2019-01-14T20:50:53.496Z,4.90
2019-01-14T20:53:41.923Z,3.17
2019-01-14T20:56:29.914Z,2.60
2019-01-14T20:59:18.115Z,3.23
2019-01-14T21:02:06.288Z,3.63
2019-01-14T21:04:54.395Z,3.40
2019-01-14T21:07:43.124Z,5.17
2019-01-14T21:10:31.650Z,4.50
2019-01-14T21:13:19.936Z,3.43
2019-01-14T21:16:08.272Z,2.57
2019-01-14T21:18:56.460Z,4.87
2019-01-14T21:21:44.964Z,2.43
2019-01-14T21:24:33.039Z,2.20
2019-01-14T21:27:21.087Z,4.33
2019-01-14T21:30:12.715Z,3.17
2019-01-14T21:33:00.706Z,2.73
2019-01-14T21:35:48.777Z,2.40
2019-01-14T21:38:37.193Z,5.70
2019-01-14T21:41:31.287Z,3.03
2019-01-14T21:44:15.050Z,8.50
2019-01-14T21:47:03.553Z,3.13
2019-01-14T21:49:51.487Z,1.60
2019-01-14T21:52:39.901Z,2.83
2019-01-14T21:55:28.336Z,2.63
2019-01-14T21:58:16.449Z,6.20
2019-01-14T22:01:05.075Z,3.40
2019-01-14T22:03:53.267Z,1.77
2019-01-14T22:06:41.259Z,7.30
2019-01-14T22:09:29.633Z,7.97
2019-01-14T22:12:17.859Z,4.60
2019-01-14T22:15:08.076Z,2.70
2019-01-14T22:17:56.365Z,9.03
2019-01-14T22:20:44.247Z,3.83
2019-01-14T22:23:32.198Z,3.60
2019-01-14T22:26:20.459Z,4.10
2019-01-14T22:29:08.576Z,3.03
2019-01-14T22:31:56.629Z,2.23
2019-01-14T22:34:45.100Z,2.53
2019-01-14T22:37:33.705Z,8.57
2019-01-14T22:40:22.112Z,4.20
2019-01-14T22:43:10.247Z,4.13
2019-01-14T22:45:58.239Z,4.33
2019-01-14T22:48:46.221Z,2.50
2019-01-14T22:51:34.531Z,5.17
2019-01-14T22:54:22.691Z,3.83
2019-01-14T22:57:10.941Z,3.70
2019-01-14T22:59:59.215Z,4.00
2019-01-14T23:02:48.295Z,4.10
2019-01-14T23:05:36.609Z,2.63
2019-01-14T23:08:24.884Z,4.20
2019-01-14T23:11:13.174Z,2.87
2019-01-14T23:14:01.368Z,1.90
2019-01-14T23:16:49.436Z,2.93
2019-01-14T23:19:37.502Z,2.93
2019-01-14T23:22:25.510Z,4.47
2019-01-14T23:25:13.860Z,3.03
2019-01-14T23:28:01.672Z,1.97
2019-01-14T23:30:49.592Z,2.43
2019-01-14T23:33:37.636Z,2.53
2019-01-14T23:36:25.858Z,2.77
2019-01-14T23:39:13.931Z,3.47
2019-01-14T23:42:02.364Z,4.60
2019-01-14T23:44:50.514Z,6.70
2019-01-14T23:47:38.979Z,7.20
2019-01-14T23:50:27.141Z,4.83
2019-01-14T23:53:15.192Z,7.53
2019-01-14T23:56:03.254Z,2.63
2019-01-14T23:58:51.339Z,3.43
